createdAt,value
2018-03-18T00:00:49.495Z,-0.9
2018-03-18T00:01:51.454Z,-0.9
2018-03-18T00:02:53.059Z,-0.8
2018-03-18T00:03:54.664Z,-0.8
2018-03-18T00:04:57.208Z,-0.8
2018-03-18T00:05:58.932Z,-0.8
2018-03-18T00:07:00.765Z,-0.8
2018-03-18T00:08:02.480Z,-0.7
2018-03-18T00:09:04.122Z,-0.8
2018-03-18T00:10:06.191Z,-0.7
2018-03-18T00:11:07.803Z,-0.8
2018-03-18T00:12:09.651Z,-0.8
2018-03-18T00:13:11.257Z,-0.8
2018-03-18T00:14:12.862Z,-0.8
2018-03-18T00:15:15.186Z,-0.8
2018-03-18T00:16:16.795Z,-0.8
2018-03-18T00:17:18.403Z,-0.8
2018-03-18T00:18:20.011Z,-0.7
2018-03-18T00:19:21.618Z,-0.8
2018-03-18T00:20:23.224Z,-0.8
2018-03-18T00:21:24.834Z,-0.8
2018-03-18T00:22:26.440Z,-0.9
2018-03-18T00:23:28.051Z,-0.9
2018-03-18T00:24:29.656Z,-0.8
2018-03-18T00:25:31.269Z,-0.8
2018-03-18T00:26:32.870Z,-0.8
2018-03-18T00:27:34.482Z,-0.8
2018-03-18T00:28:36.089Z,-0.8
2018-03-18T00:29:37.700Z,-0.8
2018-03-18T00:30:39.310Z,-0.8
2018-03-18T00:31:40.917Z,-0.8
2018-03-18T00:32:42.525Z,-0.8
2018-03-18T00:33:44.136Z,-0.9
2018-03-18T00:34:45.741Z,-0.9
2018-03-18T00:35:47.344Z,-0.8
2018-03-18T00:36:48.952Z,-0.7
2018-03-18T00:37:50.558Z,-0.8
2018-03-18T00:38:52.172Z,-0.8
2018-03-18T00:39:53.777Z,-0.9
2018-03-18T00:40:55.393Z,-1.0
2018-03-18T00:41:56.989Z,-1.0
2018-03-18T00:42:58.600Z,-0.9
2018-03-18T00:44:00.205Z,-0.9
2018-03-18T00:45:01.817Z,-1.0
2018-03-18T00:46:03.422Z,-0.9
2018-03-18T00:47:05.028Z,-0.9
2018-03-18T00:48:06.642Z,-0.9
2018-03-18T00:49:08.251Z,-0.9
2018-03-18T00:50:09.865Z,-0.8
2018-03-18T00:51:11.470Z,-0.9
2018-03-18T00:52:13.082Z,-0.9
2018-03-18T00:53:14.689Z,-1.0
2018-03-18T00:54:16.300Z,-1.0
2018-03-18T00:55:17.911Z,-1.0
2018-03-18T00:56:19.513Z,-0.9
2018-03-18T00:57:21.118Z,-1.0
2018-03-18T00:58:22.728Z,-0.9
2018-03-18T00:59:24.339Z,-1.0
2018-03-18T01:00:25.944Z,-1.0
2018-03-18T01:01:27.551Z,-1.0
2018-03-18T01:02:29.161Z,-1.0
2018-03-18T01:03:30.769Z,-1.1
2018-03-18T01:04:32.374Z,-1.0
2018-03-18T01:05:33.983Z,-1.0
2018-03-18T01:06:35.589Z,-1.1
2018-03-18T01:07:37.196Z,-1.1
2018-03-18T01:08:38.804Z,-1.2
2018-03-18T01:09:40.406Z,-1.1
2018-03-18T01:10:42.020Z,-1.2
2018-03-18T01:11:43.627Z,-1.1
2018-03-18T01:12:45.230Z,-1.0
2018-03-18T01:13:46.837Z,-1.1
2018-03-18T01:14:48.451Z,-1.1
2018-03-18T01:15:50.062Z,-1.1
2018-03-18T01:16:51.663Z,-1.1
2018-03-18T01:17:53.270Z,-1.0
2018-03-18T01:18:54.880Z,-1.0
2018-03-18T01:19:56.492Z,-1.0
2018-03-18T01:20:58.093Z,-1.0
2018-03-18T01:21:59.699Z,-1.0
2018-03-18T01:23:01.311Z,-1.0
2018-03-18T01:24:02.918Z,-1.0
2018-03-18T01:25:04.523Z,-1.0
2018-03-18T01:26:06.136Z,-1.1
2018-03-18T01:27:07.746Z,-1.0
2018-03-18T01:28:09.345Z,-1.2
2018-03-18T01:29:10.958Z,-1.1
2018-03-18T01:30:12.565Z,-1.0
2018-03-18T01:31:14.168Z,-1.0
2018-03-18T01:32:15.772Z,-1.0
2018-03-18T01:33:17.383Z,-1.0
2018-03-18T01:34:18.996Z,-1.1
2018-03-18T01:35:20.617Z,-1.1
2018-03-18T01:36:22.205Z,-1.0
2018-03-18T01:37:23.818Z,-1.0
2018-03-18T01:38:26.015Z,-0.9
2018-03-18T01:39:27.618Z,-1.0
2018-03-18T01:40:29.225Z,-1.1
2018-03-18T01:41:30.836Z,-1.1
2018-03-18T01:42:32.441Z,-1.2
2018-03-18T01:43:34.055Z,-1.2
2018-03-18T01:44:35.659Z,-1.1
2018-03-18T01:45:37.270Z,-1.1
2018-03-18T01:46:38.875Z,-1.0
2018-03-18T01:47:40.485Z,-1.1
2018-03-18T01:48:42.092Z,-1.1
2018-03-18T01:49:43.702Z,-1.0
2018-03-18T01:50:45.308Z,-1.0
2018-03-18T01:51:46.920Z,-1.0
2018-03-18T01:52:48.523Z,-1.2
2018-03-18T01:53:50.134Z,-1.1
2018-03-18T01:54:51.737Z,-1.0
2018-03-18T01:55:53.346Z,-1.1
2018-03-18T01:56:54.955Z,-1.1
2018-03-18T01:57:56.563Z,-1.1
2018-03-18T01:58:58.174Z,-1.1
2018-03-18T01:59:59.776Z,-1.1
2018-03-18T02:01:01.386Z,-1.1
2018-03-18T02:02:02.989Z,-1.1
2018-03-18T02:03:04.598Z,-1.0
2018-03-18T02:04:06.203Z,-1.1
2018-03-18T02:05:07.815Z,-1.1
2018-03-18T02:06:09.421Z,-1.1
2018-03-18T02:07:11.027Z,-1.1
2018-03-18T02:08:12.637Z,-1.1
2018-03-18T02:09:14.239Z,-1.2
2018-03-18T02:10:15.846Z,-1.1
2018-03-18T02:11:17.453Z,-1.1
2018-03-18T02:12:19.069Z,-1.2
2018-03-18T02:13:20.674Z,-1.1
2018-03-18T02:14:22.280Z,-1.1
2018-03-18T02:15:23.883Z,-1.1
2018-03-18T02:16:25.499Z,-1.2
2018-03-18T02:17:27.101Z,-1.2
2018-03-18T02:18:28.714Z,-1.2
2018-03-18T02:19:30.321Z,-1.2
2018-03-18T02:20:31.937Z,-1.3
2018-03-18T02:21:33.542Z,-1.3
2018-03-18T02:22:35.152Z,-1.3
2018-03-18T02:23:36.752Z,-1.3
2018-03-18T02:24:38.362Z,-1.3
2018-03-18T02:25:39.966Z,-1.3
2018-03-18T02:26:41.579Z,-1.3
2018-03-18T02:27:43.182Z,-1.3
2018-03-18T02:28:44.792Z,-1.4
2018-03-18T02:29:46.396Z,-1.4
2018-03-18T02:30:48.004Z,-1.4
2018-03-18T02:31:49.617Z,-1.4
2018-03-18T02:32:51.219Z,-1.3
2018-03-18T02:33:52.831Z,-1.4
2018-03-18T02:34:54.437Z,-1.4
2018-03-18T02:35:56.044Z,-1.3
2018-03-18T02:36:57.650Z,-1.4
2018-03-18T02:37:59.259Z,-1.4
2018-03-18T02:39:00.863Z,-1.5
2018-03-18T02:40:02.474Z,-1.4
2018-03-18T02:41:04.080Z,-1.4
2018-03-18T02:42:05.692Z,-1.5
2018-03-18T02:43:07.293Z,-1.5
2018-03-18T02:44:08.904Z,-1.4
2018-03-18T02:45:10.509Z,-1.6
2018-03-18T02:46:12.120Z,-1.5
2018-03-18T02:47:13.725Z,-1.5
2018-03-18T02:48:15.337Z,-1.5
2018-03-18T02:49:16.941Z,-1.5
2018-03-18T02:50:18.545Z,-1.4
2018-03-18T02:51:20.157Z,-1.4
2018-03-18T02:52:21.766Z,-1.4
2018-03-18T02:53:23.370Z,-1.5
2018-03-18T02:54:24.981Z,-1.5
2018-03-18T02:55:26.592Z,-1.5
2018-03-18T02:56:28.201Z,-1.5
2018-03-18T02:57:29.799Z,-1.5
2018-03-18T02:58:31.408Z,-1.4
2018-03-18T02:59:33.017Z,-1.5
2018-03-18T03:00:34.626Z,-1.5
2018-03-18T03:01:36.228Z,-1.5
2018-03-18T03:02:37.836Z,-1.5
2018-03-18T03:03:39.449Z,-1.5
2018-03-18T03:04:41.061Z,-1.5
2018-03-18T03:05:42.665Z,-1.5
2018-03-18T03:06:44.272Z,-1.5
2018-03-18T03:07:45.875Z,-1.5
2018-03-18T03:08:47.502Z,-1.5
2018-03-18T03:09:49.096Z,-1.5
2018-03-18T03:10:51.196Z,-1.4
2018-03-18T03:11:52.798Z,-1.4
2018-03-18T03:12:54.405Z,-1.5
2018-03-18T03:13:56.015Z,-1.5
2018-03-18T03:14:57.623Z,-1.5
2018-03-18T03:15:59.227Z,-1.5
2018-03-18T03:17:00.834Z,-1.5
2018-03-18T03:18:02.450Z,-1.5
2018-03-18T03:19:04.056Z,-1.5
2018-03-18T03:20:05.659Z,-1.5
2018-03-18T03:21:07.269Z,-1.5
2018-03-18T03:22:08.872Z,-1.5
2018-03-18T03:23:10.481Z,-1.5
2018-03-18T03:24:12.091Z,-1.5
2018-03-18T03:25:13.701Z,-1.4
2018-03-18T03:26:15.305Z,-1.3
2018-03-18T03:27:16.911Z,-1.4
2018-03-18T03:28:18.520Z,-1.4
2018-03-18T03:29:20.123Z,-1.3
2018-03-18T03:30:21.736Z,-1.4
2018-03-18T03:31:23.347Z,-1.4
2018-03-18T03:32:24.956Z,-1.3
2018-03-18T03:33:26.558Z,-1.3
2018-03-18T03:34:28.162Z,-1.3
2018-03-18T03:35:29.775Z,-1.3
2018-03-18T03:36:31.377Z,-1.2
2018-03-18T03:37:32.982Z,-1.3
2018-03-18T03:38:34.594Z,-1.3
2018-03-18T03:39:36.202Z,-1.3
2018-03-18T03:40:37.809Z,-1.1
2018-03-18T03:41:39.413Z,-1.1
2018-03-18T03:42:41.022Z,-1.1
2018-03-18T03:43:42.632Z,-1.2
2018-03-18T03:44:44.236Z,-1.2
2018-03-18T03:45:45.847Z,-1.2
2018-03-18T03:46:47.460Z,-1.2
2018-03-18T03:47:49.059Z,-1.1
2018-03-18T03:48:50.662Z,-1.1
2018-03-18T03:49:52.268Z,-1.1
2018-03-18T03:50:53.879Z,-1.1
2018-03-18T03:51:55.486Z,-1.1
2018-03-18T03:52:57.097Z,-1.1
2018-03-18T03:53:58.707Z,-1.1
2018-03-18T03:55:00.311Z,-1.1
2018-03-18T03:56:01.924Z,-1.1
2018-03-18T03:57:03.532Z,-1.1
2018-03-18T03:58:05.133Z,-1.2
2018-03-18T03:59:06.738Z,-1.2
2018-03-18T04:00:08.351Z,-1.2
2018-03-18T04:01:09.955Z,-1.2
2018-03-18T04:02:11.559Z,-1.1
2018-03-18T04:03:13.164Z,-1.1
2018-03-18T04:04:14.769Z,-1.1
2018-03-18T04:05:16.375Z,-1.1
2018-03-18T04:06:17.988Z,-1.1
2018-03-18T04:07:19.593Z,-1.0
2018-03-18T04:08:21.200Z,-1.1
2018-03-18T04:09:22.809Z,-1.1
2018-03-18T04:10:24.418Z,-1.1
2018-03-18T04:11:26.022Z,-1.1
2018-03-18T04:12:27.631Z,-1.1
2018-03-18T04:13:29.236Z,-1.1
2018-03-18T04:14:30.842Z,-1.1
2018-03-18T04:15:32.453Z,-1.2
2018-03-18T04:16:34.057Z,-1.2
2018-03-18T04:17:35.667Z,-1.1
2018-03-18T04:18:37.277Z,-1.2
2018-03-18T04:19:38.889Z,-1.1
2018-03-18T04:20:40.493Z,-1.2
2018-03-18T04:21:42.102Z,-1.2
2018-03-18T04:22:43.705Z,-1.2
2018-03-18T04:23:45.314Z,-1.2
2018-03-18T04:24:46.921Z,-1.2
2018-03-18T04:25:48.530Z,-1.3
2018-03-18T04:26:50.147Z,-1.1
2018-03-18T04:27:51.745Z,-1.3
2018-03-18T04:28:53.354Z,-1.2
2018-03-18T04:29:54.964Z,-1.2
2018-03-18T04:30:56.568Z,-1.2
2018-03-18T04:31:58.169Z,-1.1
2018-03-18T04:32:59.774Z,-1.2
2018-03-18T04:34:01.387Z,-1.2
2018-03-18T04:35:03.037Z,-1.0
2018-03-18T04:36:04.606Z,-1.0
2018-03-18T04:37:06.208Z,-1.1
2018-03-18T04:38:07.811Z,-1.1
2018-03-18T04:39:09.422Z,-1.1
2018-03-18T04:40:11.030Z,-1.2
2018-03-18T04:41:12.635Z,-1.2
2018-03-18T04:42:14.246Z,-1.2
2018-03-18T04:43:15.853Z,-1.1
2018-03-18T04:44:17.460Z,-1.1
2018-03-18T04:45:19.067Z,-1.2
2018-03-18T04:46:20.675Z,-1.2
2018-03-18T04:47:22.278Z,-1.1
2018-03-18T04:48:23.889Z,-1.1
2018-03-18T04:49:25.512Z,-1.2
2018-03-18T04:50:27.106Z,-1.1
2018-03-18T04:51:28.716Z,-1.0
2018-03-18T04:52:30.319Z,-1.0
2018-03-18T04:53:31.925Z,-1.1
2018-03-18T04:54:33.532Z,-1.1
2018-03-18T04:55:35.136Z,-1.0
2018-03-18T04:56:36.753Z,-1.2
2018-03-18T04:57:38.350Z,-1.2
2018-03-18T04:58:39.970Z,-1.2
2018-03-18T04:59:41.572Z,-1.0
2018-03-18T05:00:43.175Z,-1.2
2018-03-18T05:01:44.786Z,-1.2
2018-03-18T05:02:46.388Z,-1.0
2018-03-18T05:03:47.996Z,-1.1
2018-03-18T05:04:49.602Z,-1.1
2018-03-18T05:05:51.216Z,-1.1
2018-03-18T05:06:52.816Z,-1.2
2018-03-18T05:07:54.425Z,-1.1
2018-03-18T05:08:56.030Z,-1.1
2018-03-18T05:09:57.642Z,-1.1
2018-03-18T05:10:59.252Z,-1.1
2018-03-18T05:12:00.862Z,-1.1
2018-03-18T05:13:02.474Z,-1.1
2018-03-18T05:14:04.202Z,-1.2
2018-03-18T05:15:05.781Z,-1.1
2018-03-18T05:16:07.388Z,-1.2
2018-03-18T05:17:09.001Z,-1.1
2018-03-18T05:18:10.602Z,-1.1
2018-03-18T05:19:12.215Z,-1.1
2018-03-18T05:20:13.822Z,-1.2
2018-03-18T05:21:15.433Z,-1.1
2018-03-18T05:22:17.033Z,-1.1
2018-03-18T05:23:18.641Z,-1.0
2018-03-18T05:24:20.252Z,-1.1
2018-03-18T05:25:21.856Z,-1.1
2018-03-18T05:26:23.485Z,-1.1
2018-03-18T05:27:25.075Z,-1.0
2018-03-18T05:28:26.688Z,-1.2
2018-03-18T05:29:28.295Z,-1.2
2018-03-18T05:30:29.898Z,-1.1
2018-03-18T05:31:31.511Z,-1.1
2018-03-18T05:32:33.125Z,-1.2
2018-03-18T05:33:34.729Z,-1.2
2018-03-18T05:34:36.338Z,-1.1
2018-03-18T05:35:37.944Z,-1.1
2018-03-18T05:36:39.554Z,-1.1
2018-03-18T05:37:41.161Z,-1.1
2018-03-18T05:38:42.767Z,-1.1
2018-03-18T05:39:44.380Z,-1.1
2018-03-18T05:40:45.993Z,-1.2
2018-03-18T05:41:47.600Z,-1.2
2018-03-18T05:42:49.205Z,-1.1
2018-03-18T05:43:50.818Z,-1.1
2018-03-18T05:44:52.431Z,-1.2
2018-03-18T05:45:54.037Z,-1.2
2018-03-18T05:46:55.704Z,-1.1
2018-03-18T05:47:57.262Z,-1.2
2018-03-18T05:48:58.870Z,-1.1
2018-03-18T05:50:00.485Z,-1.1
2018-03-18T05:51:02.093Z,-1.1
2018-03-18T05:52:03.738Z,-1.1
2018-03-18T05:53:05.314Z,-1.1
2018-03-18T05:54:06.925Z,-1.1
2018-03-18T05:55:08.538Z,-1.1
2018-03-18T05:56:10.149Z,-1.0
2018-03-18T05:57:11.761Z,-1.1
2018-03-18T05:58:13.371Z,-1.1
2018-03-18T05:59:14.983Z,-1.1
2018-03-18T06:00:16.594Z,-1.0
2018-03-18T06:01:18.201Z,-1.1
2018-03-18T06:02:19.816Z,-1.2
2018-03-18T06:03:21.429Z,-1.1
2018-03-18T06:04:23.035Z,-1.0
2018-03-18T06:05:24.644Z,-1.0
2018-03-18T06:06:26.259Z,-1.2
2018-03-18T06:07:27.866Z,-1.2
2018-03-18T06:08:30.077Z,-1.0
2018-03-18T06:09:31.692Z,-1.0
2018-03-18T06:10:33.307Z,-1.0
2018-03-18T06:11:34.912Z,-1.0
2018-03-18T06:12:36.525Z,-1.0
2018-03-18T06:13:38.132Z,-1.0
2018-03-18T06:14:39.747Z,-1.1
2018-03-18T06:15:41.355Z,-1.0
2018-03-18T06:16:42.971Z,-1.1
2018-03-18T06:17:44.627Z,-1.1
2018-03-18T06:18:46.192Z,-1.1
2018-03-18T06:19:47.808Z,-1.0
2018-03-18T06:20:49.419Z,-1.1
2018-03-18T06:21:51.029Z,-1.0
2018-03-18T06:22:52.639Z,-1.1
2018-03-18T06:23:54.255Z,-1.2
2018-03-18T06:24:55.876Z,-1.1
2018-03-18T06:25:57.475Z,-1.1
2018-03-18T06:26:59.083Z,-1.1
2018-03-18T06:28:00.695Z,-1.1
2018-03-18T06:29:02.299Z,-1.2
2018-03-18T06:30:03.913Z,-1.2
2018-03-18T06:31:05.520Z,-1.0
2018-03-18T06:32:07.135Z,-1.1
2018-03-18T06:33:08.739Z,-1.2
2018-03-18T06:34:10.354Z,-1.1
2018-03-18T06:35:11.958Z,-1.0
2018-03-18T06:36:13.574Z,-1.0
2018-03-18T06:37:15.181Z,-1.0
2018-03-18T06:38:16.796Z,-1.1
2018-03-18T06:39:18.406Z,-1.0
2018-03-18T06:40:20.013Z,-1.0
2018-03-18T06:41:21.624Z,-0.9
2018-03-18T06:42:23.235Z,-0.8
2018-03-18T06:43:24.850Z,-0.7
2018-03-18T06:44:26.457Z,-0.8
2018-03-18T06:45:28.071Z,-0.8
2018-03-18T06:46:29.679Z,-0.8
2018-03-18T06:47:31.292Z,-0.8
2018-03-18T06:48:32.903Z,-0.8
2018-03-18T06:49:34.510Z,-0.9
2018-03-18T06:50:36.123Z,-0.9
2018-03-18T06:51:37.739Z,-0.9
2018-03-18T06:52:39.352Z,-0.9
2018-03-18T06:53:40.964Z,-0.9
2018-03-18T06:54:42.570Z,-1.0
2018-03-18T06:55:44.184Z,-1.0
2018-03-18T06:56:45.797Z,-1.0
2018-03-18T06:57:47.405Z,-1.0
2018-03-18T06:58:49.023Z,-1.1
2018-03-18T06:59:51.416Z,-1.0
2018-03-18T07:00:53.030Z,-1.0
2018-03-18T07:01:54.814Z,-1.0
2018-03-18T07:02:56.412Z,-0.9
2018-03-18T07:03:58.069Z,-0.9
2018-03-18T07:04:59.682Z,-0.8
2018-03-18T07:06:01.306Z,-0.9
2018-03-18T07:07:02.909Z,-0.9
2018-03-18T07:08:04.527Z,-0.8
2018-03-18T07:09:06.727Z,-0.8
2018-03-18T07:10:08.555Z,-0.8
2018-03-18T07:11:10.167Z,-0.8
2018-03-18T07:12:11.780Z,-0.7
2018-03-18T07:13:13.433Z,-0.6
2018-03-18T07:14:15.027Z,-0.7
2018-03-18T07:15:16.637Z,-0.6
2018-03-18T07:16:18.276Z,-0.6
2018-03-18T07:17:19.882Z,-0.6
2018-03-18T07:18:21.503Z,-0.7
2018-03-18T07:19:23.115Z,-0.7
2018-03-18T07:20:24.726Z,-0.7
2018-03-18T07:21:26.347Z,-0.7
2018-03-18T07:22:27.954Z,-0.6
2018-03-18T07:23:29.571Z,-0.7
2018-03-18T07:24:31.179Z,-0.6
2018-03-18T07:25:32.848Z,-0.6
2018-03-18T07:26:34.408Z,-0.6
2018-03-18T07:27:36.023Z,-0.5
2018-03-18T07:28:37.664Z,-0.4
2018-03-18T07:29:39.257Z,-0.3
2018-03-18T07:30:40.866Z,-0.1
2018-03-18T07:31:42.495Z,-0.2
2018-03-18T07:32:44.104Z,-0.2
2018-03-18T07:33:45.721Z,-0.3
2018-03-18T07:34:47.339Z,-0.3
2018-03-18T07:35:48.949Z,-0.4
2018-03-18T07:36:50.700Z,-0.4
2018-03-18T07:37:52.286Z,-0.4
2018-03-18T07:38:53.896Z,-0.3
2018-03-18T07:39:55.507Z,-0.3
2018-03-18T07:40:57.121Z,-0.3
2018-03-18T07:41:58.735Z,-0.3
2018-03-18T07:43:00.349Z,-0.4
2018-03-18T07:44:01.965Z,-0.3
2018-03-18T07:45:03.577Z,-0.4
2018-03-18T07:46:05.190Z,-0.4
2018-03-18T07:47:06.800Z,-0.3
2018-03-18T07:48:08.420Z,-0.3
2018-03-18T07:49:10.030Z,-0.4
2018-03-18T07:50:11.652Z,-0.4
2018-03-18T07:51:13.261Z,-0.4
2018-03-18T07:52:14.881Z,-0.4
2018-03-18T07:53:16.490Z,-0.3
2018-03-18T07:54:18.105Z,-0.4
2018-03-18T07:55:19.719Z,-0.3
2018-03-18T07:56:21.338Z,-0.2
2018-03-18T07:57:22.950Z,-0.0
2018-03-18T07:58:24.565Z,-0.1
2018-03-18T07:59:26.173Z,-0.1
2018-03-18T08:00:27.785Z,0.0
2018-03-18T08:01:29.399Z,-0.0
2018-03-18T08:02:31.012Z,-0.0
2018-03-18T08:03:32.625Z,0.0
2018-03-18T08:04:34.234Z,-0.0
2018-03-18T08:05:35.851Z,0.0
2018-03-18T08:06:37.454Z,0.0
2018-03-18T08:07:39.066Z,0.1
2018-03-18T08:08:40.679Z,0.0
2018-03-18T08:09:42.285Z,0.0
2018-03-18T08:10:43.897Z,-0.1
2018-03-18T08:11:46.199Z,-0.0
2018-03-18T08:12:47.819Z,-0.0
2018-03-18T08:13:49.434Z,-0.0
2018-03-18T08:14:51.039Z,0.0
2018-03-18T08:15:52.654Z,0.1
2018-03-18T08:16:54.265Z,0.2
2018-03-18T08:17:55.872Z,0.2
2018-03-18T08:18:57.483Z,0.2
2018-03-18T08:19:59.099Z,0.0
2018-03-18T08:21:00.709Z,0.1
2018-03-18T08:22:02.335Z,-0.0
2018-03-18T08:23:03.945Z,0.0
2018-03-18T08:24:05.557Z,0.1
2018-03-18T08:25:07.163Z,0.2
2018-03-18T08:26:08.778Z,0.1
2018-03-18T08:27:10.387Z,0.0
2018-03-18T08:28:11.999Z,-0.1
2018-03-18T08:29:13.615Z,-0.0
2018-03-18T08:30:15.231Z,0.0
2018-03-18T08:31:16.835Z,0.1
2018-03-18T08:32:18.450Z,0.1
2018-03-18T08:33:20.059Z,0.1
2018-03-18T08:34:21.735Z,0.1
2018-03-18T08:35:23.349Z,0.1
2018-03-18T08:36:24.962Z,0.2
2018-03-18T08:37:26.570Z,0.2
2018-03-18T08:38:28.209Z,0.1
2018-03-18T08:39:29.818Z,0.2
2018-03-18T08:40:31.428Z,0.3
2018-03-18T08:41:33.042Z,0.4
2018-03-18T08:42:34.652Z,0.4
2018-03-18T08:43:36.255Z,0.6
2018-03-18T08:44:37.864Z,0.8
2018-03-18T08:45:39.475Z,1.0
2018-03-18T08:46:41.084Z,1.3
2018-03-18T08:47:42.695Z,1.5
2018-03-18T08:48:44.315Z,1.5
2018-03-18T08:49:45.922Z,1.6
2018-03-18T08:50:47.532Z,2.0
2018-03-18T08:51:49.148Z,2.2
2018-03-18T08:52:50.756Z,2.2
2018-03-18T08:53:52.376Z,2.5
2018-03-18T08:54:53.984Z,2.8
2018-03-18T08:55:55.602Z,3.0
2018-03-18T08:56:57.208Z,2.9
2018-03-18T08:57:58.820Z,2.9
2018-03-18T08:59:00.436Z,3.0
2018-03-18T09:00:02.045Z,3.2
2018-03-18T09:01:03.658Z,3.2
2018-03-18T09:02:05.267Z,3.2
2018-03-18T09:03:06.886Z,3.0
2018-03-18T09:04:08.496Z,2.9
2018-03-18T09:05:10.111Z,2.8
2018-03-18T09:06:11.721Z,2.8
2018-03-18T09:07:13.337Z,2.9
2018-03-18T09:08:14.948Z,2.8
2018-03-18T09:09:16.563Z,2.5
2018-03-18T09:10:18.177Z,2.6
2018-03-18T09:11:19.790Z,2.4
2018-03-18T09:12:21.398Z,2.2
2018-03-18T09:13:23.022Z,2.2
2018-03-18T09:14:24.627Z,2.2
2018-03-18T09:15:26.234Z,2.3
2018-03-18T09:16:27.852Z,2.2
2018-03-18T09:17:29.468Z,1.9
2018-03-18T09:18:31.079Z,2.1
2018-03-18T09:19:32.697Z,2.3
2018-03-18T09:20:34.313Z,2.4
2018-03-18T09:21:35.923Z,2.4
2018-03-18T09:22:38.937Z,2.4
2018-03-18T09:23:40.512Z,2.6
2018-03-18T09:24:42.116Z,2.8
2018-03-18T09:25:43.733Z,2.8
2018-03-18T09:26:45.348Z,2.7
2018-03-18T09:27:46.958Z,2.6
2018-03-18T09:28:48.573Z,2.5
2018-03-18T09:29:50.216Z,2.6
2018-03-18T09:30:51.903Z,2.3
2018-03-18T09:31:53.495Z,2.4
2018-03-18T09:32:55.109Z,2.3
2018-03-18T09:33:56.726Z,2.4
2018-03-18T09:34:58.337Z,2.2
2018-03-18T09:35:59.948Z,2.2
2018-03-18T09:37:01.562Z,2.3
2018-03-18T09:38:03.172Z,2.2
2018-03-18T09:39:06.764Z,2.0
2018-03-18T09:40:08.503Z,2.0
2018-03-18T09:41:10.122Z,1.9
2018-03-18T09:42:11.729Z,2.0
2018-03-18T09:43:13.337Z,1.9
2018-03-18T09:44:14.958Z,1.9
2018-03-18T09:45:16.570Z,1.9
2018-03-18T09:46:18.180Z,1.7
2018-03-18T09:47:19.793Z,1.5
2018-03-18T09:48:21.406Z,1.3
2018-03-18T09:49:23.017Z,1.0
2018-03-18T09:50:24.627Z,0.9
2018-03-18T09:51:26.237Z,1.0
2018-03-18T09:52:28.763Z,0.9
2018-03-18T09:53:30.372Z,0.9
2018-03-18T09:54:31.988Z,0.9
2018-03-18T09:55:33.583Z,0.9
2018-03-18T09:56:35.200Z,0.9
2018-03-18T09:57:36.805Z,0.8
2018-03-18T09:58:38.422Z,0.7
2018-03-18T09:59:40.033Z,0.8
2018-03-18T10:00:41.647Z,0.7
2018-03-18T10:01:43.260Z,0.8
2018-03-18T10:02:44.872Z,0.9
2018-03-18T10:03:46.484Z,0.7
2018-03-18T10:04:48.092Z,0.7
2018-03-18T10:05:49.707Z,0.8
2018-03-18T10:06:51.314Z,0.8
2018-03-18T10:07:52.930Z,0.8
2018-03-18T10:08:54.536Z,0.9
2018-03-18T10:09:56.151Z,0.7
2018-03-18T10:10:57.755Z,0.9
2018-03-18T10:11:59.369Z,1.0
2018-03-18T10:13:00.976Z,1.0
2018-03-18T10:14:02.614Z,1.0
2018-03-18T10:15:04.203Z,1.1
2018-03-18T10:16:05.814Z,1.2
2018-03-18T10:17:07.422Z,1.2
2018-03-18T10:18:09.034Z,1.1
2018-03-18T10:19:10.642Z,1.1
2018-03-18T10:20:12.277Z,1.3
2018-03-18T10:21:13.867Z,1.3
2018-03-18T10:22:15.483Z,1.1
2018-03-18T10:23:17.092Z,1.3
2018-03-18T10:24:18.699Z,1.3
2018-03-18T10:25:20.311Z,1.3
2018-03-18T10:26:21.922Z,1.3
2018-03-18T10:27:23.535Z,1.3
2018-03-18T10:28:25.145Z,1.3
2018-03-18T10:29:26.758Z,1.3
2018-03-18T10:30:28.364Z,1.4
2018-03-18T10:31:30.021Z,1.5
2018-03-18T10:32:31.633Z,1.5
2018-03-18T10:33:33.241Z,1.4
2018-03-18T10:34:35.609Z,1.4
2018-03-18T10:35:37.222Z,1.5
2018-03-18T10:36:38.833Z,1.6
2018-03-18T10:37:40.450Z,1.8
2018-03-18T10:38:42.063Z,2.0
2018-03-18T10:39:43.671Z,2.1
2018-03-18T10:40:45.279Z,2.2
2018-03-18T10:41:46.896Z,2.2
2018-03-18T10:42:48.517Z,2.2
2018-03-18T10:43:50.123Z,2.3
2018-03-18T10:44:51.734Z,2.3
2018-03-18T10:45:53.349Z,2.3
2018-03-18T10:46:54.967Z,2.4
2018-03-18T10:47:56.575Z,2.4
2018-03-18T10:48:58.187Z,2.5
2018-03-18T10:49:59.807Z,2.7
2018-03-18T10:51:01.422Z,2.8
2018-03-18T10:52:03.032Z,2.9
2018-03-18T10:53:04.648Z,3.1
2018-03-18T10:54:06.262Z,3.1
2018-03-18T10:55:07.904Z,3.2
2018-03-18T10:56:09.492Z,3.5
2018-03-18T10:57:11.105Z,3.4
2018-03-18T10:58:12.724Z,3.4
2018-03-18T10:59:14.334Z,3.5
2018-03-18T11:00:15.950Z,3.5
2018-03-18T11:01:17.560Z,3.6
2018-03-18T11:02:19.179Z,3.7
2018-03-18T11:03:20.788Z,3.7
2018-03-18T11:04:22.408Z,3.8
2018-03-18T11:05:24.021Z,4.0
2018-03-18T11:06:25.636Z,4.1
2018-03-18T11:07:27.247Z,4.2
2018-03-18T11:08:28.864Z,4.2
2018-03-18T11:09:30.474Z,4.3
2018-03-18T11:10:32.090Z,4.3
2018-03-18T11:11:33.705Z,4.5
2018-03-18T11:12:35.325Z,4.6
2018-03-18T11:13:36.938Z,4.8
2018-03-18T11:14:38.558Z,4.8
2018-03-18T11:15:40.167Z,5.0
2018-03-18T11:16:41.783Z,5.1
2018-03-18T11:17:43.414Z,5.0
2018-03-18T11:18:45.017Z,5.0
2018-03-18T11:19:46.641Z,4.9
2018-03-18T11:20:48.246Z,4.9
2018-03-18T11:21:49.861Z,4.8
2018-03-18T11:22:51.473Z,4.9
2018-03-18T11:23:53.138Z,5.2
2018-03-18T11:24:54.706Z,5.8
2018-03-18T11:25:56.328Z,5.9
2018-03-18T11:26:57.941Z,6.0
2018-03-18T11:27:59.556Z,6.4
2018-03-18T11:29:01.177Z,6.5
2018-03-18T11:30:02.821Z,6.5
2018-03-18T11:31:04.403Z,6.7
2018-03-18T11:32:06.026Z,6.6
2018-03-18T11:33:07.642Z,6.7
2018-03-18T11:34:09.260Z,6.7
2018-03-18T11:35:10.872Z,6.9
2018-03-18T11:36:12.486Z,6.8
2018-03-18T11:37:14.113Z,6.9
2018-03-18T11:38:15.724Z,6.9
2018-03-18T11:39:17.338Z,6.9
2018-03-18T11:40:18.954Z,7.4
2018-03-18T11:41:20.575Z,7.9
2018-03-18T11:42:22.193Z,8.2
2018-03-18T11:43:23.805Z,8.2
2018-03-18T11:44:25.422Z,8.5
2018-03-18T11:45:27.044Z,8.8
2018-03-18T11:46:28.659Z,9.3
2018-03-18T11:47:30.276Z,9.2
2018-03-18T11:48:31.892Z,9.1
2018-03-18T11:49:33.527Z,9.2
2018-03-18T11:50:35.162Z,9.3
2018-03-18T11:51:36.746Z,9.5
2018-03-18T11:52:38.367Z,9.9
2018-03-18T11:53:40.808Z,10.3
2018-03-18T11:54:42.424Z,10.3
2018-03-18T11:55:44.051Z,10.5
2018-03-18T11:56:45.667Z,10.6
2018-03-18T11:57:47.282Z,10.5
2018-03-18T11:58:48.897Z,10.3
2018-03-18T11:59:50.520Z,10.5
2018-03-18T12:00:52.141Z,10.4
2018-03-18T12:01:53.759Z,10.1
2018-03-18T12:02:55.379Z,10.3
2018-03-18T12:03:57.001Z,10.7
2018-03-18T12:04:58.654Z,10.8
2018-03-18T12:06:00.267Z,10.7
2018-03-18T12:07:01.892Z,11.0
2018-03-18T12:08:03.509Z,10.7
2018-03-18T12:09:05.127Z,11.0
2018-03-18T12:10:06.750Z,10.7
2018-03-18T12:11:08.376Z,11.0
2018-03-18T12:12:09.983Z,11.0
2018-03-18T12:13:11.602Z,11.3
2018-03-18T12:14:13.224Z,11.0
2018-03-18T12:15:14.844Z,10.7
2018-03-18T12:16:16.465Z,10.6
2018-03-18T12:17:18.085Z,10.6
2018-03-18T12:18:19.704Z,10.2
2018-03-18T12:19:21.327Z,10.2
2018-03-18T12:20:22.943Z,10.0
2018-03-18T12:21:24.907Z,9.9
2018-03-18T12:22:26.526Z,9.3
2018-03-18T12:23:28.141Z,9.0
2018-03-18T12:24:29.763Z,8.8
2018-03-18T12:25:31.377Z,8.5
2018-03-18T12:26:33.002Z,7.8
2018-03-18T12:27:34.624Z,7.5
2018-03-18T12:28:36.234Z,7.4
2018-03-18T12:29:37.886Z,7.3
2018-03-18T12:30:39.502Z,7.2
2018-03-18T12:31:41.119Z,7.3
2018-03-18T12:32:42.733Z,7.3
2018-03-18T12:33:44.354Z,7.1
2018-03-18T12:34:45.964Z,6.8
2018-03-18T12:35:47.575Z,6.6
2018-03-18T12:36:49.188Z,6.1
2018-03-18T12:37:50.806Z,6.2
2018-03-18T12:38:52.418Z,6.0
2018-03-18T12:39:54.037Z,6.0
2018-03-18T12:40:55.652Z,5.8
2018-03-18T12:41:57.268Z,5.8
2018-03-18T12:42:58.880Z,5.8
2018-03-18T12:44:00.499Z,5.9
2018-03-18T12:45:02.110Z,5.9
2018-03-18T12:46:03.733Z,6.0
2018-03-18T12:47:05.340Z,6.1
2018-03-18T12:48:06.956Z,5.8
2018-03-18T12:49:08.571Z,5.7
2018-03-18T12:50:10.186Z,5.8
2018-03-18T12:51:11.800Z,5.7
2018-03-18T12:52:13.415Z,5.9
2018-03-18T12:53:15.034Z,6.2
2018-03-18T12:54:16.651Z,6.4
2018-03-18T12:55:18.257Z,6.4
2018-03-18T12:56:19.868Z,6.2
2018-03-18T12:57:21.485Z,6.1
2018-03-18T12:58:23.097Z,6.4
2018-03-18T12:59:24.716Z,6.6
2018-03-18T13:00:26.331Z,6.8
2018-03-18T13:01:27.947Z,7.0
2018-03-18T13:02:29.558Z,7.0
2018-03-18T13:03:31.175Z,7.2
2018-03-18T13:04:32.788Z,7.4
2018-03-18T13:05:34.398Z,7.5
2018-03-18T13:06:36.027Z,7.4
2018-03-18T13:07:37.631Z,7.7
2018-03-18T13:08:39.241Z,7.7
2018-03-18T13:09:40.851Z,7.7
2018-03-18T13:10:42.464Z,7.8
2018-03-18T13:11:44.077Z,8.0
2018-03-18T13:12:45.690Z,8.0
2018-03-18T13:13:47.327Z,8.2
2018-03-18T13:14:48.920Z,8.0
2018-03-18T13:15:50.536Z,8.1
2018-03-18T13:16:52.145Z,8.3
2018-03-18T13:17:53.760Z,8.2
2018-03-18T13:18:55.373Z,8.4
2018-03-18T13:19:56.991Z,8.0
2018-03-18T13:20:58.607Z,7.5
2018-03-18T13:22:00.219Z,7.5
2018-03-18T13:23:01.834Z,7.6
2018-03-18T13:24:03.442Z,7.6
2018-03-18T13:25:05.065Z,7.4
2018-03-18T13:26:06.675Z,7.3
2018-03-18T13:27:08.285Z,7.0
2018-03-18T13:28:09.904Z,6.7
2018-03-18T13:29:11.520Z,6.8
2018-03-18T13:30:13.128Z,6.6
2018-03-18T13:31:14.745Z,6.6
2018-03-18T13:32:16.354Z,6.5
2018-03-18T13:33:17.972Z,6.4
2018-03-18T13:34:19.581Z,6.6
2018-03-18T13:35:21.196Z,6.9
2018-03-18T13:36:22.816Z,7.1
2018-03-18T13:37:24.428Z,7.3
2018-03-18T13:38:26.044Z,7.3
2018-03-18T13:39:27.659Z,7.5
2018-03-18T13:40:29.276Z,7.5
2018-03-18T13:41:30.887Z,7.4
2018-03-18T13:42:32.501Z,7.5
2018-03-18T13:43:34.122Z,7.6
2018-03-18T13:44:35.736Z,7.8
2018-03-18T13:45:37.354Z,7.9
2018-03-18T13:46:38.965Z,7.6
2018-03-18T13:47:40.539Z,7.6
2018-03-18T13:48:42.158Z,7.3
2018-03-18T13:49:43.774Z,7.2
2018-03-18T13:50:45.386Z,7.2